sensor_id;sensor_type;location;lat;lon;timestamp;temperature;humidity
52387;DHT22;38317;53.084;6.960;2023-08-31T15:00:00;13.40;99.90
52387;DHT22;38317;53.084;6.960;2023-08-31T15:02:25;17.20;99.90
52387;DHT22;38317;53.084;6.960;2023-08-31T15:04:51;17.00;99.90
52387;DHT22;38317;53.084;6.960;2023-08-31T15:07:17;16.80;99.90
52387;DHT22;38317;53.084;6.960;2023-08-31T15:09:44;16.50;99.90
52387;DHT22;38317;53.084;6.960;2023-08-31T15:12:09;16.20;99.90
52387;DHT22;38317;53.084;6.960;2023-08-31T15:14:35;15.80;99.90
52387;DHT22;38317;53.084;6.960;2023-08-31T15:17:03;15.80;99.90
52387;DHT22;38317;53.084;6.960;2023-08-31T15:19:29;15.70;99.90
52387;DHT22;38317;53.084;6.960;2023-08-31T15:21:55;15.60;99.90
52387;DHT22;38317;53.084;6.960;2023-08-31T15:24:20;15.70;99.90
52387;DHT22;38317;53.084;6.960;2023-08-31T15:26:46;15.90;99.90
52387;DHT22;38317;53.084;6.960;2023-08-31T15:29:12;16.00;99.90
52387;DHT22;38317;53.084;6.960;2023-08-31T15:31:37;16.30;99.90
52387;DHT22;38317;53.084;6.960;2023-08-31T15:34:04;16.40;99.90
52387;DHT22;38317;53.084;6.960;2023-08-31T15:36:30;16.60;99.90
52387;DHT22;38317;53.084;6.960;2023-08-31T15:38:55;16.70;99.90
52387;DHT22;38317;53.084;6.960;2023-08-31T15:41:21;16.80;99.90
52387;DHT22;38317;53.084;6.960;2023-08-31T15:43:47;16.80;99.90
52387;DHT22;38317;53.084;6.960;2023-08-31T15:46:13;16.90;99.90
52387;DHT22;38317;53.084;6.960;2023-08-31T15:48:41;17.00;99.90
52387;DHT22;38317;53.084;6.960;2023-08-31T15:51:06;17.00;99.90
52387;DHT22;38317;53.084;6.960;2023-08-31T15:53:33;17.00;99.90
52387;DHT22;38317;53.084;6.960;2023-08-31T15:55:59;17.10;99.90
52387;DHT22;38317;53.084;6.960;2023-08-31T15:58:25;17.10;99.90
52387;DHT22;38317;53.084;6.960;2023-08-31T16:00:55;17.20;99.90
52387;DHT22;38317;53.084;6.960;2023-08-31T16:03:26;17.20;99.90
52387;DHT22;38317;53.084;6.960;2023-08-31T16:05:53;17.20;99.90
52387;DHT22;38317;53.084;6.960;2023-08-31T16:08:19;17.10;99.90
52387;DHT22;38317;53.084;6.960;2023-08-31T16:10:46;17.20;99.90
52387;DHT22;38317;53.084;6.960;2023-08-31T16:13:12;17.10;99.90
52387;DHT22;38317;53.084;6.960;2023-08-31T16:15:44;17.10;99.90
52387;DHT22;38317;53.084;6.960;2023-08-31T16:18:12;17.10;99.90
52387;DHT22;38317;53.084;6.960;2023-08-31T16:20:38;17.00;99.90
52387;DHT22;38317;53.084;6.960;2023-08-31T16:23:04;16.90;99.90
52387;DHT22;38317;53.084;6.960;2023-08-31T16:25:30;16.90;99.90
52387;DHT22;38317;53.084;6.960;2023-08-31T16:27:55;17.00;99.90
52387;DHT22;38317;53.084;6.960;2023-08-31T16:30:22;17.10;99.90
52387;DHT22;38317;53.084;6.960;2023-08-31T16:32:48;17.10;99.90
52387;DHT22;38317;53.084;6.960;2023-08-31T16:35:14;17.10;99.90
52387;DHT22;38317;53.084;6.960;2023-08-31T16:37:41;17.00;99.90
52387;DHT22;38317;53.084;6.960;2023-08-31T16:40:11;17.00;99.90
52387;DHT22;38317;53.084;6.960;2023-08-31T16:42:41;17.10;99.90
52387;DHT22;38317;53.084;6.960;2023-08-31T16:45:08;17.10;99.90
52387;DHT22;38317;53.084;6.960;2023-08-31T16:47:35;17.10;99.90
52387;DHT22;38317;53.084;6.960;2023-08-31T16:50:01;17.00;99.90
52387;DHT22;38317;53.084;6.960;2023-08-31T16:52:29;16.90;99.90
52387;DHT22;38317;53.084;6.960;2023-08-31T16:54:55;16.70;99.90
52387;DHT22;38317;53.084;6.960;2023-08-31T16:57:20;16.60;99.90
52387;DHT22;38317;53.084;6.960;2023-08-31T16:59:46;16.50;99.90
52387;DHT22;38317;53.084;6.960;2023-08-31T17:02:12;16.40;99.90
52387;DHT22;38317;53.084;6.960;2023-08-31T17:04:38;16.30;99.90
52387;DHT22;38317;53.084;6.960;2023-08-31T17:07:04;16.20;99.90
52387;DHT22;38317;53.084;6.960;2023-08-31T17:09:30;16.20;99.90
52387;DHT22;38317;53.084;6.960;2023-08-31T17:11:56;16.10;99.90
52387;DHT22;38317;53.084;6.960;2023-08-31T17:14:29;16.20;99.90
52387;DHT22;38317;53.084;6.960;2023-08-31T17:16:55;16.10;99.90
52387;DHT22;38317;53.084;6.960;2023-08-31T17:19:26;16.10;99.90
52387;DHT22;38317;53.084;6.960;2023-08-31T17:21:52;16.20;99.90
52387;DHT22;38317;53.084;6.960;2023-08-31T17:24:18;16.20;99.90
52387;DHT22;38317;53.084;6.960;2023-08-31T17:26:43;16.20;99.90
52387;DHT22;38317;53.084;6.960;2023-08-31T17:29:09;16.20;99.90
52387;DHT22;38317;53.084;6.960;2023-08-31T17:31:35;16.20;99.90
52387;DHT22;38317;53.084;6.960;2023-08-31T17:34:00;16.20;99.90
52387;DHT22;38317;53.084;6.960;2023-08-31T17:36:26;16.20;99.90
52387;DHT22;38317;53.084;6.960;2023-08-31T17:38:52;16.20;99.90
52387;DHT22;38317;53.084;6.960;2023-08-31T17:41:18;16.20;99.90
52387;DHT22;38317;53.084;6.960;2023-08-31T17:43:44;16.10;99.90
52387;DHT22;38317;53.084;6.960;2023-08-31T17:46:10;16.10;99.90
52387;DHT22;38317;53.084;6.960;2023-08-31T17:48:36;16.10;99.90
52387;DHT22;38317;53.084;6.960;2023-08-31T17:51:02;16.10;99.90
52387;DHT22;38317;53.084;6.960;2023-08-31T17:53:28;16.00;99.90
52387;DHT22;38317;53.084;6.960;2023-08-31T17:55:54;16.00;99.90
52387;DHT22;38317;53.084;6.960;2023-08-31T17:58:20;15.90;99.90
52387;DHT22;38317;53.084;6.960;2023-08-31T18:00:46;15.90;99.90
52387;DHT22;38317;53.084;6.960;2023-08-31T18:03:12;15.90;99.90
52387;DHT22;38317;53.084;6.960;2023-08-31T18:05:37;15.80;99.90
52387;DHT22;38317;53.084;6.960;2023-08-31T18:08:03;15.80;99.90
52387;DHT22;38317;53.084;6.960;2023-08-31T18:10:29;15.70;99.90
52387;DHT22;38317;53.084;6.960;2023-08-31T18:12:55;15.70;99.90
52387;DHT22;38317;53.084;6.960;2023-08-31T18:15:21;15.60;99.90
52387;DHT22;38317;53.084;6.960;2023-08-31T18:17:47;15.70;99.90
52387;DHT22;38317;53.084;6.960;2023-08-31T18:20:13;15.50;99.90
52387;DHT22;38317;53.084;6.960;2023-08-31T18:22:39;15.50;99.90
52387;DHT22;38317;53.084;6.960;2023-08-31T18:25:08;15.40;99.90
52387;DHT22;38317;53.084;6.960;2023-08-31T18:27:35;15.40;99.90
52387;DHT22;38317;53.084;6.960;2023-08-31T18:30:00;15.30;99.90
52387;DHT22;38317;53.084;6.960;2023-08-31T18:32:26;15.30;99.90
52387;DHT22;38317;53.084;6.960;2023-08-31T18:34:52;15.20;99.90
52387;DHT22;38317;53.084;6.960;2023-08-31T18:37:19;15.10;99.90
52387;DHT22;38317;53.084;6.960;2023-08-31T18:39:45;15.10;99.90
52387;DHT22;38317;53.084;6.960;2023-08-31T18:42:11;15.00;99.90
52387;DHT22;38317;53.084;6.960;2023-08-31T18:44:37;14.90;99.90
52387;DHT22;38317;53.084;6.960;2023-08-31T18:47:03;14.90;99.90
52387;DHT22;38317;53.084;6.960;2023-08-31T18:49:29;14.90;99.90
52387;DHT22;38317;53.084;6.960;2023-08-31T18:51:58;14.80;99.90
52387;DHT22;38317;53.084;6.960;2023-08-31T18:54:23;14.80;99.90
52387;DHT22;38317;53.084;6.960;2023-08-31T18:56:49;14.70;99.90
52387;DHT22;38317;53.084;6.960;2023-08-31T18:59:15;14.70;99.90
52387;DHT22;38317;53.084;6.960;2023-08-31T19:01:40;14.60;99.90
52387;DHT22;38317;53.084;6.960;2023-08-31T19:04:06;14.60;99.90
52387;DHT22;38317;53.084;6.960;2023-08-31T19:06:32;14.60;99.90
52387;DHT22;38317;53.084;6.960;2023-08-31T19:08:59;14.60;99.90
52387;DHT22;38317;53.084;6.960;2023-08-31T19:11:26;14.50;99.90
52387;DHT22;38317;53.084;6.960;2023-08-31T19:13:52;14.50;99.90
52387;DHT22;38317;53.084;6.960;2023-08-31T19:16:18;14.40;99.90
52387;DHT22;38317;53.084;6.960;2023-08-31T19:18:44;14.40;99.90
52387;DHT22;38317;53.084;6.960;2023-08-31T19:21:11;14.40;99.90
52387;DHT22;38317;53.084;6.960;2023-08-31T19:23:37;14.40;99.90
52387;DHT22;38317;53.084;6.960;2023-08-31T19:26:05;14.40;99.90
52387;DHT22;38317;53.084;6.960;2023-08-31T19:28:38;14.30;99.90
52387;DHT22;38317;53.084;6.960;2023-08-31T19:31:05;14.30;99.90
52387;DHT22;38317;53.084;6.960;2023-08-31T19:33:31;14.20;99.90
52387;DHT22;38317;53.084;6.960;2023-08-31T19:35:57;14.20;99.90
52387;DHT22;38317;53.084;6.960;2023-08-31T19:38:23;14.20;99.90
52387;DHT22;38317;53.084;6.960;2023-08-31T19:40:49;14.10;99.90
52387;DHT22;38317;53.084;6.960;2023-08-31T19:43:18;14.10;99.90
52387;DHT22;38317;53.084;6.960;2023-08-31T19:45:45;14.10;99.90
52387;DHT22;38317;53.084;6.960;2023-08-31T19:48:11;14.10;99.90
52387;DHT22;38317;53.084;6.960;2023-08-31T19:50:38;14.00;99.90
52387;DHT22;38317;53.084;6.960;2023-08-31T19:53:04;14.00;99.90
52387;DHT22;38317;53.084;6.960;2023-08-31T19:55:31;13.90;99.90
52387;DHT22;38317;53.084;6.960;2023-08-31T19:57:57;13.90;99.90
52387;DHT22;38317;53.084;6.960;2023-08-31T20:00:25;13.80;99.90
52387;DHT22;38317;53.084;6.960;2023-08-31T20:02:52;13.80;99.90
52387;DHT22;38317;53.084;6.960;2023-08-31T20:05:18;13.70;99.90
52387;DHT22;38317;53.084;6.960;2023-08-31T20:07:50;13.70;99.90
52387;DHT22;38317;53.084;6.960;2023-08-31T20:10:17;13.60;99.90
52387;DHT22;38317;53.084;6.960;2023-08-31T20:12:43;13.60;99.90
52387;DHT22;38317;53.084;6.960;2023-08-31T20:15:09;13.40;99.90
52387;DHT22;38317;53.084;6.960;2023-08-31T20:17:35;13.50;99.90
52387;DHT22;38317;53.084;6.960;2023-08-31T20:20:04;13.40;99.90
52387;DHT22;38317;53.084;6.960;2023-08-31T20:22:30;13.30;99.90
52387;DHT22;38317;53.084;6.960;2023-08-31T20:24:56;13.30;99.90
52387;DHT22;38317;53.084;6.960;2023-08-31T20:27:22;13.30;99.90
52387;DHT22;38317;53.084;6.960;2023-08-31T20:29:48;13.20;99.90
52387;DHT22;38317;53.084;6.960;2023-08-31T20:32:14;13.20;99.90
52387;DHT22;38317;53.084;6.960;2023-08-31T20:34:40;13.10;99.90
52387;DHT22;38317;53.084;6.960;2023-08-31T20:37:05;13.00;99.90
52387;DHT22;38317;53.084;6.960;2023-08-31T20:39:35;13.00;99.90
52387;DHT22;38317;53.084;6.960;2023-08-31T20:42:05;13.00;99.90
52387;DHT22;38317;53.084;6.960;2023-08-31T20:44:37;12.90;99.90
52387;DHT22;38317;53.084;6.960;2023-08-31T20:47:02;12.90;99.90
52387;DHT22;38317;53.084;6.960;2023-08-31T20:49:29;12.90;99.90
52387;DHT22;38317;53.084;6.960;2023-08-31T20:51:55;12.90;99.90
52387;DHT22;38317;53.084;6.960;2023-08-31T20:54:20;12.90;99.90
52387;DHT22;38317;53.084;6.960;2023-08-31T20:56:46;12.90;99.90
52387;DHT22;38317;53.084;6.960;2023-08-31T20:59:12;12.80;99.90
52387;DHT22;38317;53.084;6.960;2023-08-31T21:01:39;12.80;99.90
52387;DHT22;38317;53.084;6.960;2023-08-31T21:04:05;12.80;99.90
52387;DHT22;38317;53.084;6.960;2023-08-31T21:06:31;12.70;99.90
52387;DHT22;38317;53.084;6.960;2023-08-31T21:08:56;12.70;99.90
52387;DHT22;38317;53.084;6.960;2023-08-31T21:11:23;12.70;99.90
52387;DHT22;38317;53.084;6.960;2023-08-31T21:13:50;12.60;99.90
52387;DHT22;38317;53.084;6.960;2023-08-31T21:16:16;12.60;99.90
52387;DHT22;38317;53.084;6.960;2023-08-31T21:18:42;12.60;99.90
52387;DHT22;38317;53.084;6.960;2023-08-31T21:21:08;12.50;99.90
52387;DHT22;38317;53.084;6.960;2023-08-31T21:23:34;12.50;99.90
52387;DHT22;38317;53.084;6.960;2023-08-31T21:26:02;12.50;99.90
52387;DHT22;38317;53.084;6.960;2023-08-31T21:28:28;12.40;99.90
52387;DHT22;38317;53.084;6.960;2023-08-31T21:30:53;12.40;99.90
52387;DHT22;38317;53.084;6.960;2023-08-31T21:33:19;12.40;99.90
52387;DHT22;38317;53.084;6.960;2023-08-31T21:35:46;12.40;99.90
52387;DHT22;38317;53.084;6.960;2023-08-31T21:38:12;12.40;99.90
52387;DHT22;38317;53.084;6.960;2023-08-31T21:40:40;12.30;99.90
52387;DHT22;38317;53.084;6.960;2023-08-31T21:43:06;12.30;99.90
52387;DHT22;38317;53.084;6.960;2023-08-31T21:45:34;12.30;99.90
52387;DHT22;38317;53.084;6.960;2023-08-31T21:48:00;12.20;99.90
52387;DHT22;38317;53.084;6.960;2023-08-31T21:50:27;12.20;99.90
52387;DHT22;38317;53.084;6.960;2023-08-31T21:52:55;12.20;99.90
52387;DHT22;38317;53.084;6.960;2023-08-31T21:55:21;12.20;99.90
52387;DHT22;38317;53.084;6.960;2023-08-31T21:57:47;12.10;99.90
52387;DHT22;38317;53.084;6.960;2023-08-31T22:00:16;12.10;99.90
52387;DHT22;38317;53.084;6.960;2023-08-31T22:02:42;12.10;99.90
52387;DHT22;38317;53.084;6.960;2023-08-31T22:05:09;12.10;99.90
52387;DHT22;38317;53.084;6.960;2023-08-31T22:07:36;12.10;99.90
52387;DHT22;38317;53.084;6.960;2023-08-31T22:10:04;12.00;99.90
52387;DHT22;38317;53.084;6.960;2023-08-31T22:12:32;12.00;99.90
52387;DHT22;38317;53.084;6.960;2023-08-31T22:15:15;12.00;99.90
52387;DHT22;38317;53.084;6.960;2023-08-31T22:17:42;12.00;99.90
52387;DHT22;38317;53.084;6.960;2023-08-31T22:20:08;12.00;99.90
52387;DHT22;38317;53.084;6.960;2023-08-31T22:22:38;11.90;99.90
52387;DHT22;38317;53.084;6.960;2023-08-31T22:25:04;12.00;99.90
52387;DHT22;38317;53.084;6.960;2023-08-31T22:27:30;12.00;99.90
52387;DHT22;38317;53.084;6.960;2023-08-31T22:29:56;12.00;99.90
52387;DHT22;38317;53.084;6.960;2023-08-31T22:32:23;12.00;99.90
52387;DHT22;38317;53.084;6.960;2023-08-31T22:34:48;11.90;99.90
52387;DHT22;38317;53.084;6.960;2023-08-31T22:37:14;11.90;99.90
52387;DHT22;38317;53.084;6.960;2023-08-31T22:39:40;11.90;99.90
52387;DHT22;38317;53.084;6.960;2023-08-31T22:42:08;11.90;99.90
52387;DHT22;38317;53.084;6.960;2023-08-31T22:44:35;11.90;99.90
52387;DHT22;38317;53.084;6.960;2023-08-31T22:47:00;11.90;99.90
52387;DHT22;38317;53.084;6.960;2023-08-31T22:49:26;11.90;99.90
52387;DHT22;38317;53.084;6.960;2023-08-31T22:51:52;11.80;99.90
52387;DHT22;38317;53.084;6.960;2023-08-31T22:54:18;11.80;99.90
52387;DHT22;38317;53.084;6.960;2023-08-31T22:56:43;11.80;99.90
52387;DHT22;38317;53.084;6.960;2023-08-31T22:59:09;11.80;99.90
52387;DHT22;38317;53.084;6.960;2023-08-31T23:01:35;11.80;99.90
52387;DHT22;38317;53.084;6.960;2023-08-31T23:04:00;11.80;99.90
52387;DHT22;38317;53.084;6.960;2023-08-31T23:06:26;11.80;99.90
52387;DHT22;38317;53.084;6.960;2023-08-31T23:08:52;11.80;99.90
52387;DHT22;38317;53.084;6.960;2023-08-31T23:11:18;11.80;99.90
52387;DHT22;38317;53.084;6.960;2023-08-31T23:13:46;11.80;99.90
52387;DHT22;38317;53.084;6.960;2023-08-31T23:16:11;11.80;99.90
52387;DHT22;38317;53.084;6.960;2023-08-31T23:18:37;11.80;99.90
52387;DHT22;38317;53.084;6.960;2023-08-31T23:21:04;11.80;99.90
52387;DHT22;38317;53.084;6.960;2023-08-31T23:23:31;11.80;99.90
52387;DHT22;38317;53.084;6.960;2023-08-31T23:25:57;11.80;99.90
52387;DHT22;38317;53.084;6.960;2023-08-31T23:28:23;11.80;99.90
52387;DHT22;38317;53.084;6.960;2023-08-31T23:30:49;11.80;99.90
52387;DHT22;38317;53.084;6.960;2023-08-31T23:33:15;11.80;99.90
52387;DHT22;38317;53.084;6.960;2023-08-31T23:35:41;11.70;99.90
52387;DHT22;38317;53.084;6.960;2023-08-31T23:38:09;11.70;99.90
52387;DHT22;38317;53.084;6.960;2023-08-31T23:40:35;11.70;99.90
52387;DHT22;38317;53.084;6.960;2023-08-31T23:43:01;11.70;99.90
52387;DHT22;38317;53.084;6.960;2023-08-31T23:45:27;11.70;99.90
52387;DHT22;38317;53.084;6.960;2023-08-31T23:47:53;11.70;99.90
52387;DHT22;38317;53.084;6.960;2023-08-31T23:50:19;11.60;99.90
52387;DHT22;38317;53.084;6.960;2023-08-31T23:52:45;11.60;99.90
52387;DHT22;38317;53.084;6.960;2023-08-31T23:55:11;11.60;99.90
52387;DHT22;38317;53.084;6.960;2023-08-31T23:57:37;11.60;99.90
